Terminal Aerodrome Forecast
Issued by NWS Cleveland, OH

Home | Current Version | Previous Version | Graphics & Text | Print | Product List | Glossary Off
Versions: 1 2 3 4 5 6 7 8 9 10 11 12 13 14 15 16 17 18 19 20 21 22 23 24 25 26 27 28

000
FTUS41 KCLE 301000 AAA
TAFCLE
TAF AMD
KCLE 301027Z 3010/3112 33015G25KT 4SM -SHSN SCT015 OVC035
      TEMPO 3010/3011 1 1/2SM -SHSN SCT015 OVC025
     FM301100 32015G25KT 6SM -SN SCT008 OVC025
     FM301400 32014G22KT P6SM -SHSN SCT015 BKN025
     FM302200 29008KT P6SM SCT025 BKN035
     FM310500 24005KT P6SM SCT100 OVC150=

USA.gov is the U.S. government's official web portal to all federal, state and local government web resources and services.